Time;durP1;ratioP1;P1;durP2;ratioP2;P2;SDS_P1;SDS_P2;PMS_P1;PMS_P2;Temp;Humidity;BMP_temperature;BMP_pressure;BME280_temperature;BME280_humidity;BME280_pressure;Samples;Min_cycle;Max_cycle;Signal;HPM_P1;HPM_P2
2023/03/26 00:01:28;;;;;;;13.63;1.83;;;;;;;12.22;59.52;100249.13;5041849;28;20044;-66
2023/03/26 00:03:57;;;;;;;9.63;1.90;;;;;;;12.23;60.15;100237.75;5067269;28;20055;-65
2023/03/26 00:06:27;;;;;;;9.32;1.70;;;;;;;12.19;61.21;100227.69;5069123;28;20041;-65
2023/03/26 00:08:56;;;;;;;11.80;1.90;;;;;;;12.02;62.17;100222.28;5061816;28;20063;-66
2023/03/26 00:11:26;;;;;;;9.05;1.70;;;;;;;12.09;62.86;100219.81;5067237;28;20048;-64
2023/03/26 00:13:56;;;;;;;;;;;;;;;11.92;63.74;100203.38;5065821;28;20056;-64
2023/03/26 00:16:27;;;;;;;;;;;;;;;11.84;64.02;100196.75;5067034;28;19928;-64
2023/03/26 00:18:56;;;;;;;6.00;1.80;;;;;;;12.04;63.64;100197.94;5065528;28;19940;-64
2023/03/26 00:21:26;;;;;;;7.90;2.05;;;;;;;11.85;64.07;100195.63;5060591;28;20049;-65
2023/03/26 00:23:59;;;;;;;;;;;;;;;11.79;64.31;100179.59;5056869;28;20052;-65
2023/03/26 00:26:29;;;;;;;8.80;1.88;;;;;;;11.67;65.25;100183.06;5064496;28;20265;-64
2023/03/26 00:28:58;;;;;;;8.55;1.77;;;;;;;11.53;66.25;100176.94;5069838;28;20060;-65
2023/03/26 00:31:26;;;;;;;8.93;1.83;;;;;;;11.55;67.02;100179.38;5063769;28;20049;-65
2023/03/26 00:33:55;;;;;;;7.25;1.90;;;;;;;11.48;67.45;100173.56;5066528;28;20044;-65
2023/03/26 00:36:26;;;;;;;8.20;2.05;;;;;;;11.46;68.40;100162.06;5070462;28;20518;-65
2023/03/26 00:38:54;;;;;;;8.05;2.00;;;;;;;11.44;69.60;100167.91;5062317;28;20052;-64
2023/03/26 00:41:24;;;;;;;7.07;1.77;;;;;;;11.58;69.36;100162.97;5060717;28;20049;-64
2023/03/26 00:43:55;;;;;;;9.80;1.80;;;;;;;11.25;70.73;100157.31;5041154;28;20044;-65
2023/03/26 00:46:24;;;;;;;5.10;1.50;;;;;;;11.49;71.16;100139.34;5067370;28;20052;-65
2023/03/26 00:48:52;;;;;;;9.93;1.63;;;;;;;11.58;71.23;100127.09;5059338;28;20052;-65
2023/03/26 00:51:20;;;;;;;13.32;2.40;;;;;;;11.24;72.77;100121.81;5068036;28;20491;-65
2023/03/26 00:53:48;;;;;;;8.75;1.73;;;;;;;10.88;74.91;100111.25;5062281;28;20044;-67
2023/03/26 00:56:16;;;;;;;11.77;2.20;;;;;;;11.18;74.60;100107.41;5067997;28;20060;-64
2023/03/26 00:58:44;;;;;;;11.25;2.00;;;;;;;11.09;75.43;100098.34;5060751;28;20055;-66
2023/03/26 01:01:15;;;;;;;8.23;1.88;;;;;;;11.03;75.88;100096.13;5069472;28;20049;-66
2023/03/26 01:03:44;;;;;;;8.25;2.03;;;;;;;10.95;76.97;100080.41;5074475;28;20056;-65
2023/03/26 01:06:34;;;;;;;19.98;2.63;;;;;;;10.87;77.82;100076.59;5072773;28;20048;-65
2023/03/26 01:09:11;;;;;;;8.98;1.85;;;;;;;10.71;79.27;100071.94;5069685;28;20963;-64
2023/03/26 01:11:39;;;;;;;13.63;2.38;;;;;;;10.69;79.90;100061.25;5054955;28;20045;-64
2023/03/26 01:14:13;;;;;;;9.30;2.45;;;;;;;10.74;80.10;100060.28;5075711;28;20045;-65
2023/03/26 01:16:45;;;;;;;14.65;2.83;;;;;;;10.62;80.85;100047.19;5073463;28;20048;-65
2023/03/26 01:19:28;;;;;;;10.23;2.28;;;;;;;10.65;80.88;100035.50;5070827;28;20416;-65
2023/03/26 01:21:56;;;;;;;9.75;2.30;;;;;;;10.61;82.25;100033.75;5072917;28;20408;-64
2023/03/26 01:24:24;;;;;;;10.38;2.42;;;;;;;10.41;83.76;100035.28;5075918;28;20056;-64
2023/03/26 01:27:16;;;;;;;10.73;2.40;;;;;;;10.29;84.54;100028.84;5073159;28;20083;-65
2023/03/26 01:30:12;;;;;;;10.38;2.55;;;;;;;10.43;84.87;100019.22;5054515;28;20059;-64
2023/03/26 01:32:46;;;;;;;8.73;2.00;;;;;;;10.28;86.37;100017.03;5075828;28;20475;-65
2023/03/26 01:35:26;;;;;;;14.32;2.30;;;;;;;10.29;86.84;100002.13;5063820;28;20053;-64
2023/03/26 01:38:15;;;;;;;10.63;2.10;;;;;;;10.29;87.80;100002.13;5074461;28;20059;-65
2023/03/26 01:40:56;;;;;;;8.55;2.08;;;;;;;10.20;88.70;99974.63;5060193;28;20041;-65
2023/03/26 01:43:54;;;;;;;10.55;2.88;;;;;;;10.20;89.03;99963.63;5077958;28;20052;-65
2023/03/26 01:46:22;;;;;;;11.05;2.65;;;;;;;10.12;89.84;99949.88;5075524;28;20056;-66
2023/03/26 01:48:50;;;;;;;11.18;2.55;;;;;;;10.05;89.87;99930.28;5059325;28;20075;-64
2023/03/26 01:51:33;;;;;;;12.32;2.95;;;;;;;10.17;89.71;99928.50;5077386;28;20044;-64
2023/03/26 01:54:03;;;;;;;22.33;7.22;;;;;;;10.10;90.01;99913.63;5077292;28;20056;-64
2023/03/26 01:56:52;;;;;;;13.48;3.15;;;;;;;10.05;90.87;99902.78;5060272;28;20048;-65
2023/03/26 01:59:25;;;;;;;10.10;2.90;;;;;;;10.04;91.28;99895.69;5069171;28;20044;-65
2023/03/26 02:02:10;;;;;;;12.98;2.88;;;;;;;10.11;90.84;99891.28;5077358;28;20048;-65
2023/03/26 02:04:56;;;;;;;12.40;2.50;;;;;;;9.96;91.35;99889.06;5078146;28;20048;-65
2023/03/26 02:07:27;;;;;;;12.77;2.88;;;;;;;9.77;93.00;99874.06;5076630;28;20052;-66
2023/03/26 02:09:58;;;;;;;10.13;3.03;;;;;;;9.78;93.94;99868.25;5061156;28;20507;-65
2023/03/26 02:12:26;;;;;;;10.85;2.97;;;;;;;9.79;93.89;99867.13;5075048;28;20431;-65
2023/03/26 02:14:54;;;;;;;8.13;2.30;;;;;;;10.03;93.64;99848.09;5077772;28;20048;-65
2023/03/26 02:17:28;;;;;;;8.90;2.45;;;;;;;9.79;94.23;99833.31;5077229;28;20060;-65
2023/03/26 02:19:56;;;;;;;9.45;2.60;;;;;;;10.29;93.24;99825.19;5077264;28;20059;-65
2023/03/26 02:22:28;;;;;;;10.15;2.33;;;;;;;9.86;93.33;99812.41;5076011;28;20059;-65
2023/03/26 02:24:58;;;;;;;11.05;2.30;;;;;;;9.87;94.72;99792.00;5076631;28;20052;-65
2023/03/26 02:27:25;;;;;;;9.63;2.35;;;;;;;9.90;94.52;99763.06;5057859;28;20056;-65
2023/03/26 02:29:53;;;;;;;9.93;2.60;;;;;;;9.89;94.93;99759.47;5063583;28;20049;-66
2023/03/26 02:32:22;;;;;;;8.98;2.38;;;;;;;9.81;94.35;99768.59;5074210;28;20052;-65
2023/03/26 02:34:50;;;;;;;16.58;2.90;;;;;;;9.93;94.80;99779.69;5065361;28;20057;-65
2023/03/26 02:37:18;;;;;;;10.18;2.60;;;;;;;10.04;93.89;99758.91;5073700;28;20507;-66
2023/03/26 02:39:51;;;;;;;15.75;3.05;;;;;;;9.96;94.45;99750.69;5075739;28;20057;-65
2023/03/26 02:42:29;;;;;;;13.73;3.33;;;;;;;9.92;94.57;99727.78;5073667;28;20051;-66
2023/03/26 02:44:56;;;;;;;15.55;2.58;;;;;;;9.80;94.39;99733.97;5077072;28;20049;-66
2023/03/26 02:47:50;;;;;;;11.63;2.53;;;;;;;9.93;95.18;99732.94;5075993;28;20523;-64
2023/03/26 02:50:43;;;;;;;11.75;2.83;;;;;;;10.04;94.33;99727.84;5074398;28;20103;-64
2023/03/26 02:53:46;;;;;;;11.20;2.65;;;;;;;10.04;93.97;99714.88;5054149;28;20515;-64
2023/03/26 02:56:47;;;;;;;9.55;2.30;;;;;;;10.11;93.59;99709.69;5048808;28;20057;-65
2023/03/26 02:59:34;;;;;;;10.38;2.50;;;;;;;10.46;92.23;99699.19;5058172;28;20488;-65
2023/03/26 03:02:28;;;;;;;10.10;2.47;;;;;;;10.45;91.32;99686.59;5060411;28;20527;-65
2023/03/26 03:05:04;;;;;;;12.13;2.40;;;;;;;10.64;90.89;99675.06;5065536;28;20045;-63
2023/03/26 03:07:36;;;;;;;11.95;2.58;;;;;;;10.64;90.25;99664.06;5075526;28;20127;-64
2023/03/26 03:10:07;;;;;;;15.38;2.72;;;;;;;10.65;89.76;99658.22;5060968;28;20403;-64
2023/03/26 03:12:55;;;;;;;13.27;2.80;;;;;;;10.87;88.59;99657.81;5068667;28;20059;-67
2023/03/26 03:15:22;;;;;;;8.85;2.00;;;;;;;10.88;87.32;99644.88;5075932;28;20063;-66
2023/03/26 03:17:50;;;;;;;9.68;2.53;;;;;;;11.14;86.77;99653.63;5066117;28;20056;-65
2023/03/26 03:20:17;;;;;;;13.90;2.65;;;;;;;11.14;85.11;99653.63;5066955;28;20408;-65
2023/03/26 03:22:44;;;;;;;9.00;1.85;;;;;;;11.12;84.68;99653.94;5077001;28;20085;-65
2023/03/26 03:25:13;;;;;;;13.05;2.22;;;;;;;11.01;84.43;99650.06;5075793;28;20075;-64
2023/03/26 03:27:41;;;;;;;8.70;1.83;;;;;;;11.19;84.54;99639.63;5059036;28;20053;-64
2023/03/26 03:30:12;;;;;;;7.70;2.28;;;;;;;11.18;83.37;99636.06;5068651;28;20048;-63
2023/03/26 03:32:46;;;;;;;11.43;2.13;;;;;;;11.23;83.35;99630.31;5057436;28;20056;-64
2023/03/26 03:35:17;;;;;;;7.75;1.88;;;;;;;11.29;81.79;99633.66;5063789;28;20056;-64
2023/03/26 03:37:49;;;;;;;9.90;2.30;;;;;;;11.41;80.20;99630.91;5075510;28;20074;-64
2023/03/26 03:40:16;;;;;;;8.75;1.58;;;;;;;11.44;79.17;99651.47;5075721;28;20429;-64
2023/03/26 03:42:45;;;;;;;10.73;1.88;;;;;;;11.49;78.54;99642.97;5052556;28;20416;-64
2023/03/26 03:45:17;;;;;;;7.00;1.90;;;;;;;11.47;78.66;99632.28;5056902;28;20049;-64
2023/03/26 03:48:03;;;;;;;6.03;1.13;;;;;;;11.55;78.47;99636.06;5061747;28;20064;-65
2023/03/26 03:50:44;;;;;;;9.45;1.65;;;;;;;11.45;77.83;99651.13;5072548;28;20052;-64
2023/03/26 03:53:35;;;;;;;8.15;1.50;;;;;;;11.49;77.46;99642.97;5074781;28;20048;-64
2023/03/26 03:56:09;;;;;;;8.38;1.88;;;;;;;11.50;77.63;99645.38;5071889;28;20047;-64
2023/03/26 03:58:57;;;;;;;8.23;1.50;;;;;;;11.34;78.63;99648.03;5076425;28;20044;-65
2023/03/26 04:01:31;;;;;;;6.97;1.27;;;;;;;11.23;77.98;99648.78;5073793;28;20044;-65
2023/03/26 04:04:04;;;;;;;5.70;1.30;;;;;;;11.03;77.82;99658.78;5057540;28;20489;-65
2023/03/26 04:07:03;;;;;;;6.47;1.08;;;;;;;10.64;79.15;99653.03;5067244;28;20049;-66
2023/03/26 04:09:49;;;;;;;6.40;1.17;;;;;;;10.57;80.28;99652.78;5076089;28;20064;-64
2023/03/26 04:12:20;;;;;;;6.03;1.10;;;;;;;10.48;80.56;99643.84;5074204;28;20048;-65
2023/03/26 04:14:56;;;;;;;7.80;1.23;;;;;;;10.64;79.25;99636.53;5075437;28;20045;-65
2023/03/26 04:17:24;;;;;;;7.15;1.00;;;;;;;10.69;78.34;99636.31;5053201;28;20056;-64
2023/03/26 04:19:54;;;;;;;5.22;1.08;;;;;;;10.86;77.60;99645.19;5071266;28;20053;-65
2023/03/26 04:22:33;;;;;;;4.05;0.90;;;;;;;10.72;77.14;99646.66;5053357;28;20048;-64
2023/03/26 04:25:04;;;;;;;7.22;0.90;;;;;;;10.52;77.12;99659.31;5054802;28;20060;-65
2023/03/26 04:28:00;;;;;;;6.38;0.90;;;;;;;10.44;77.03;99660.22;5054782;28;20061;-65
2023/03/26 04:30:52;;;;;;;5.18;0.80;;;;;;;10.48;76.17;99663.88;5058232;28;20056;-65
2023/03/26 04:33:38;;;;;;;2.95;0.60;;;;;;;10.61;76.18;99656.47;5075260;28;20048;-70
2023/03/26 04:36:06;;;;;;;6.18;1.05;;;;;;;10.82;75.96;99636.00;5054188;28;20045;-65
2023/03/26 04:38:40;;;;;;;5.40;1.05;;;;;;;10.94;75.60;99649.00;5058819;28;20075;-65
2023/03/26 04:41:13;;;;;;;4.38;0.93;;;;;;;10.73;75.37;99651.81;5054680;28;20071;-65
2023/03/26 04:44:04;;;;;;;2.65;0.60;;;;;;;10.69;75.52;99655.56;5068784;28;20056;-64
2023/03/26 04:46:45;;;;;;;7.32;1.30;;;;;;;10.39;76.21;99659.63;5056638;28;20078;-67
2023/03/26 04:49:19;;;;;;;7.45;2.00;;;;;;;10.50;77.35;99650.59;5075153;28;20063;-65
2023/03/26 04:51:47;;;;;;;6.53;1.05;;;;;;;10.40;76.22;99656.53;5065511;28;20040;-65
2023/03/26 04:54:33;;;;;;;5.10;0.65;;;;;;;10.47;76.14;99665.03;5074713;28;20036;-65
2023/03/26 04:57:07;;;;;;;6.72;0.95;;;;;;;10.42;75.68;99675.44;5054147;28;20049;-65
2023/03/26 04:59:58;;;;;;;5.65;0.70;;;;;;;10.28;76.11;99669.41;5068643;28;20063;-65
2023/03/26 05:02:25;;;;;;;5.45;0.85;;;;;;;10.32;75.75;99670.38;5067382;28;20044;-64
2023/03/26 05:04:56;;;;;;;4.30;1.00;;;;;;;10.39;75.94;99676.91;5070558;28;20040;-65
2023/03/26 05:07:26;;;;;;;12.15;1.10;;;;;;;10.18;76.22;99679.69;5067809;28;20060;-65
2023/03/26 05:09:56;;;;;;;6.87;1.07;;;;;;;10.31;76.44;99685.25;5074310;28;20675;-64
2023/03/26 05:12:49;;;;;;;3.75;0.70;;;;;;;10.43;76.79;99682.56;5073611;28;20049;-64
2023/03/26 05:15:29;;;;;;;4.97;1.30;;;;;;;10.49;75.84;99695.81;5051982;28;20500;-65
2023/03/26 05:17:57;;;;;;;5.15;0.80;;;;;;;10.40;75.09;99703.31;5075440;28;20417;-65
2023/03/26 05:20:32;;;;;;;5.90;0.80;;;;;;;10.03;76.46;99702.28;5073737;28;20044;-65
2023/03/26 05:23:02;;;;;;;6.03;1.08;;;;;;;10.18;76.69;99703.66;5073971;28;20049;-65
2023/03/26 05:25:35;;;;;;;9.63;1.20;;;;;;;10.23;76.79;99705.41;5036989;28;20049;-66
2023/03/26 05:28:14;;;;;;;7.15;0.88;;;;;;;10.27;76.00;99711.84;5060356;28;20403;-66
2023/03/26 05:31:14;;;;;;;4.90;0.95;;;;;;;10.19;75.95;99730.84;5065625;28;20053;-65
2023/03/26 05:33:46;;;;;;;7.07;1.15;;;;;;;10.25;75.84;99720.47;5058299;28;20541;-65
2023/03/26 05:36:14;;;;;;;5.78;0.93;;;;;;;10.23;75.89;99731.00;5071896;28;20423;-64
2023/03/26 05:39:02;;;;;;;5.65;1.10;;;;;;;10.15;76.50;99732.66;5071245;28;20048;-65
2023/03/26 05:42:06;;;;;;;8.45;0.80;;;;;;;10.11;75.94;99736.41;5056274;28;20060;-66
2023/03/26 05:45:01;;;;;;;9.68;0.95;;;;;;;10.32;75.65;99737.22;5074760;28;20044;-65
2023/03/26 05:47:31;;;;;;;9.75;1.15;;;;;;;10.49;75.40;99730.78;5072565;28;20067;-65
2023/03/26 05:49:59;;;;;;;6.93;1.30;;;;;;;10.38;74.62;99724.06;5058124;28;20060;-66
2023/03/26 05:52:27;;;;;;;6.97;1.30;;;;;;;10.30;74.23;99723.00;5072248;28;20427;-66
2023/03/26 05:55:17;;;;;;;12.93;1.23;;;;;;;10.09;75.09;99733.19;5063586;28;20060;-65
2023/03/26 05:58:12;;;;;;;10.10;1.17;;;;;;;10.18;74.94;99726.47;5067364;28;20067;-64
2023/03/26 06:01:04;;;;;;;9.05;1.40;;;;;;;10.24;74.80;99732.59;5058570;28;20389;-65
2023/03/26 06:03:51;;;;;;;14.50;1.60;;;;;;;10.45;73.37;99730.66;5073203;28;20056;-65
2023/03/26 06:06:20;;;;;;;12.55;1.42;;;;;;;10.17;73.12;99732.31;5052440;28;20492;-65
2023/03/26 06:08:54;;;;;;;13.63;1.73;;;;;;;10.34;73.86;99729.44;5058168;28;20049;-65
2023/03/26 06:11:30;;;;;;;15.20;1.80;;;;;;;10.32;73.09;99723.44;5065095;28;20407;-65
2023/03/26 06:13:59;;;;;;;;;;;;;;;10.26;72.66;99751.50;5057656;28;20048;-65
2023/03/26 06:16:27;;;;;;;6.70;1.25;;;;;;;9.98;73.35;99741.00;5074996;28;20302;-65
2023/03/26 06:19:05;;;;;;;8.02;1.55;;;;;;;10.18;73.29;99745.72;5077598;28;20063;-65
2023/03/26 06:21:51;;;;;;;11.15;1.80;;;;;;;10.26;72.94;99748.75;5076939;28;20057;-66
2023/03/26 06:24:22;;;;;;;10.90;1.63;;;;;;;10.40;72.11;99754.81;5060759;28;20559;-65
2023/03/26 06:27:10;;;;;;;7.60;1.83;;;;;;;10.41;71.72;99757.22;5074379;28;20063;-66
2023/03/26 06:30:00;;;;;;;12.98;1.50;;;;;;;10.39;72.35;99758.72;5072767;28;20067;-66
2023/03/26 06:32:38;;;;;;;9.85;1.40;;;;;;;10.41;72.33;99754.47;5072582;28;20045;-66
2023/03/26 06:35:10;;;;;;;9.07;1.73;;;;;;;10.37;72.53;99747.22;5057553;28;20053;-65
2023/03/26 06:37:37;;;;;;;10.82;1.25;;;;;;;10.79;71.54;99740.56;5057970;28;20056;-66
2023/03/26 06:40:06;;;;;;;12.95;1.63;;;;;;;10.71;71.43;99753.25;5077152;28;20471;-65
2023/03/26 06:43:12;;;;;;;10.50;2.28;;;;;;;10.36;72.04;99743.66;5037926;28;20452;-65
2023/03/26 06:45:42;;;;;;;12.45;2.00;;;;;;;10.37;72.04;99745.28;5026479;28;20049;-64
2023/03/26 06:48:30;;;;;;;13.48;1.90;;;;;;;10.63;71.78;99748.66;5055752;28;20060;-66
2023/03/26 06:51:17;;;;;;;15.63;1.63;;;;;;;10.69;70.80;99744.53;5053631;28;20067;-65
2023/03/26 06:54:11;;;;;;;13.98;1.88;;;;;;;11.07;70.27;99753.38;5065275;28;20049;-65
2023/03/26 06:56:54;;;;;;;16.10;1.83;;;;;;;10.91;69.88;99744.13;5052126;28;20056;-65
2023/03/26 06:59:42;;;;;;;16.83;2.25;;;;;;;10.91;69.44;99746.91;5042715;28;20063;-66
2023/03/26 07:02:28;;;;;;;13.70;2.42;;;;;;;10.82;69.93;99771.00;5073416;28;20048;-65
2023/03/26 07:05:15;;;;;;;13.73;1.67;;;;;;;10.82;69.90;99764.66;5063482;28;20068;-65
2023/03/26 07:08:01;;;;;;;13.40;2.25;;;;;;;10.71;70.65;99764.28;5075877;28;20036;-65
2023/03/26 07:10:47;;;;;;;12.38;1.90;;;;;;;10.85;69.10;99759.28;5064623;28;20049;-65
2023/03/26 07:13:55;;;;;;;12.80;1.92;;;;;;;10.78;69.87;99770.03;5029309;28;20053;-65
2023/03/26 07:16:47;;;;;;;16.50;2.22;;;;;;;10.64;70.68;99768.69;5016640;28;20409;-64
2023/03/26 07:19:32;;;;;;;19.20;2.50;;;;;;;10.58;71.20;99767.31;5056303;28;20094;-65
2023/03/26 07:21:59;;;;;;;16.88;1.92;;;;;;;10.61;71.11;99761.13;5074166;28;20056;-64
2023/03/26 07:24:49;;;;;;;;;;;;;;;10.62;71.44;99770.97;5072265;28;20056;-65
2023/03/26 07:27:45;;;;;;;15.05;2.63;;;;;;;11.07;70.54;99777.41;5076409;28;19927;-65
2023/03/26 07:30:51;;;;;;;19.05;3.08;;;;;;;11.07;69.79;99769.13;5060224;28;20056;-65
2023/03/26 07:33:43;;;;;;;16.00;2.77;;;;;;;11.09;68.99;99786.13;5025220;28;20079;-65
2023/03/26 07:36:56;;;;;;;15.90;2.55;;;;;;;11.01;69.83;99790.59;5064350;28;20052;-66
2023/03/26 07:40:03;;;;;;;22.20;2.88;;;;;;;10.99;70.04;99795.63;5052502;28;20048;-67
2023/03/26 07:43:32;;;;;;;22.85;3.72;;;;;;;11.19;69.64;99793.97;5072754;28;20052;-66
2023/03/26 07:46:27;;;;;;;16.77;3.70;;;;;;;11.10;69.58;99796.81;5004111;28;20050;-67
2023/03/26 07:49:19;;;;;;;17.33;2.75;;;;;;;11.20;70.02;99801.91;5046662;28;20052;-66
2023/03/26 07:52:00;;;;;;;17.60;2.58;;;;;;;11.29;69.36;99804.56;5074277;28;20052;-67
2023/03/26 07:54:43;;;;;;;18.10;2.83;;;;;;;11.21;69.47;99798.00;5065398;28;20044;-68
2023/03/26 07:57:47;;;;;;;14.55;2.33;;;;;;;11.56;70.14;99803.94;5032236;28;20048;-66
2023/03/26 08:00:40;;;;;;;16.40;2.60;;;;;;;11.57;69.25;99810.25;5074786;28;20400;-65
2023/03/26 08:03:29;;;;;;;18.00;2.78;;;;;;;11.71;68.46;99799.75;5075482;28;20051;-65
2023/03/26 08:06:34;;;;;;;14.05;2.45;;;;;;;12.05;67.30;99811.16;5074222;28;20063;-67
2023/03/26 08:09:31;;;;;;;22.70;2.88;;;;;;;12.60;68.23;99805.00;5059499;28;20059;-67
2023/03/26 08:12:19;;;;;;;14.40;2.45;;;;;;;12.52;65.67;99805.91;5065699;28;20045;-66
2023/03/26 08:15:20;;;;;;;14.80;2.88;;;;;;;12.35;66.17;99814.47;5063582;28;20040;-66
2023/03/26 08:17:49;;;;;;;19.80;3.13;;;;;;;12.41;66.43;99818.63;5057104;28;20427;-67
2023/03/26 08:20:19;;;;;;;21.77;3.08;;;;;;;12.36;67.45;99821.63;5069288;28;20044;-67
2023/03/26 08:22:55;;;;;;;24.00;3.65;;;;;;;12.53;66.23;99813.06;5063319;28;20068;-65
2023/03/26 08:25:23;;;;;;;18.45;3.20;;;;;;;12.52;66.15;99810.66;5064198;28;20049;-66
2023/03/26 08:28:02;;;;;;;16.15;3.08;;;;;;;12.49;66.29;99814.91;5057454;28;20063;-66
2023/03/26 08:30:30;;;;;;;13.57;2.63;;;;;;;12.50;66.29;99816.50;5067484;28;20052;-66
2023/03/26 08:33:01;;;;;;;16.88;3.22;;;;;;;12.27;66.04;99830.00;5071676;28;20667;-66
2023/03/26 08:35:28;;;;;;;21.80;3.67;;;;;;;12.19;66.63;99832.88;5071931;28;20059;-66
2023/03/26 08:37:56;;;;;;;25.45;3.40;;;;;;;12.38;66.59;99828.38;5067139;28;20075;-67
2023/03/26 08:40:48;;;;;;;17.25;3.45;;;;;;;12.50;65.98;99841.38;5069997;28;20393;-67
2023/03/26 08:44:15;;;;;;;21.60;2.83;;;;;;;12.01;66.89;99837.81;5068783;28;20048;-67
2023/03/26 08:46:57;;;;;;;11.93;3.05;;;;;;;12.02;67.87;99838.63;4961726;28;21270;-68
2023/03/26 08:49:43;;;;;;;16.15;2.53;;;;;;;12.20;66.81;99832.53;5063774;28;20040;-66
2023/03/26 08:52:16;;;;;;;14.52;2.15;;;;;;;12.20;66.20;99840.03;5065349;28;20040;-67
2023/03/26 08:55:16;;;;;;;10.88;2.20;;;;;;;12.23;65.24;99839.31;5061932;28;20047;-67
2023/03/26 08:57:59;;;;;;;16.75;2.95;;;;;;;12.19;65.18;99839.22;5038813;28;20577;-66
2023/03/26 09:00:29;;;;;;;14.13;2.42;;;;;;;12.19;65.08;99841.97;5072193;28;20056;-68
2023/03/26 09:03:08;;;;;;;14.77;2.30;;;;;;;12.36;64.58;99852.00;5073346;28;20061;-68
2023/03/26 09:06:08;;;;;;;13.52;2.53;;;;;;;12.60;63.20;99843.69;5065844;28;20057;-68
2023/03/26 09:08:54;;;;;;;12.52;2.55;;;;;;;12.50;64.13;99848.88;5049238;28;20060;-67
2023/03/26 09:11:36;;;;;;;10.20;2.05;;;;;;;12.70;63.21;99853.44;5068013;28;20071;-67
2023/03/26 09:14:29;;;;;;;13.20;2.45;;;;;;;12.27;63.57;99856.81;5069840;28;20048;-68
2023/03/26 09:17:33;;;;;;;9.15;1.83;;;;;;;12.21;63.14;99856.25;5066647;28;20044;-68
2023/03/26 09:20:10;;;;;;;8.98;1.83;;;;;;;12.27;63.77;99857.59;5070952;28;20052;-68
2023/03/26 09:22:57;;;;;;;9.23;1.80;;;;;;;11.92;63.13;99861.16;5066065;28;20060;-68
2023/03/26 09:25:40;;;;;;;10.90;1.83;;;;;;;12.12;63.11;99869.34;5069198;28;20053;-67
2023/03/26 09:28:20;;;;;;;10.95;2.15;;;;;;;11.80;63.82;99863.91;5055520;28;20079;-68
2023/03/26 09:31:06;;;;;;;10.00;1.77;;;;;;;11.92;63.70;99870.25;5065833;28;20049;-68
2023/03/26 09:33:54;;;;;;;8.85;1.30;;;;;;;11.43;62.99;99871.25;5069430;28;20049;-67
2023/03/26 09:36:33;;;;;;;9.55;1.38;;;;;;;11.38;63.87;99873.41;5061297;28;20055;-68
2023/03/26 09:39:07;;;;;;;9.02;1.92;;;;;;;11.27;64.23;99882.09;5068914;28;20048;-67
2023/03/26 09:41:51;;;;;;;8.80;2.20;;;;;;;11.49;64.36;99878.16;5067109;28;20045;-67
2023/03/26 09:44:38;;;;;;;9.68;2.35;;;;;;;11.35;64.27;99883.97;5046774;28;20049;-68
2023/03/26 09:47:29;;;;;;;8.25;1.45;;;;;;;11.20;64.91;99898.38;5062399;28;20051;-67
2023/03/26 09:50:18;;;;;;;6.00;1.20;;;;;;;11.33;64.63;99889.00;5056893;28;20055;-68
2023/03/26 09:53:04;;;;;;;7.07;1.48;;;;;;;11.05;64.74;99890.69;5067853;28;20041;-68
2023/03/26 09:55:43;;;;;;;9.68;1.52;;;;;;;11.08;65.84;99892.00;5072279;28;20167;-66
2023/03/26 09:58:23;;;;;;;5.50;1.08;;;;;;;10.99;65.65;99900.34;5068908;28;20048;-68
2023/03/26 10:01:04;;;;;;;6.65;1.30;;;;;;;11.41;65.69;99895.59;5069690;28;20048;-66
2023/03/26 10:03:40;;;;;;;7.47;1.63;;;;;;;11.71;64.51;99894.34;5067719;28;20040;-65
2023/03/26 10:06:40;;;;;;;5.88;1.33;;;;;;;11.66;62.71;99905.59;5054305;28;20048;-66
2023/03/26 10:09:39;;;;;;;8.05;1.65;;;;;;;11.54;64.07;99902.75;5059481;28;20056;-62
2023/03/26 10:12:25;;;;;;;6.88;1.48;;;;;;;11.68;64.08;99906.03;5065111;28;20052;-69
2023/03/26 10:15:21;;;;;;;12.23;1.90;;;;;;;11.43;63.83;99904.34;5066528;28;20052;-65
2023/03/26 10:17:59;;;;;;;7.45;1.95;;;;;;;11.49;64.94;99905.72;5066181;28;20354;-64
2023/03/26 10:20:53;;;;;;;8.15;2.30;;;;;;;11.45;64.38;99917.78;5061739;28;20044;-65
2023/03/26 10:23:26;;;;;;;7.03;1.80;;;;;;;11.59;64.09;99919.13;5060563;28;20057;-63
2023/03/26 10:26:00;;;;;;;8.25;2.28;;;;;;;11.91;63.10;99923.00;5072278;28;20047;-64
2023/03/26 10:29:02;;;;;;;13.07;1.95;;;;;;;11.77;62.76;99922.53;5069837;28;20056;-64
2023/03/26 10:31:58;;;;;;;6.80;2.05;;;;;;;11.98;62.88;99926.00;5071032;28;20519;-68
2023/03/26 10:34:50;;;;;;;5.20;1.50;;;;;;;12.06;62.76;99927.88;5064029;28;20049;-67
2023/03/26 10:37:42;;;;;;;7.78;1.98;;;;;;;12.05;62.91;99929.03;5064616;28;20074;-65
2023/03/26 10:40:30;;;;;;;9.20;1.95;;;;;;;11.73;63.09;99935.41;5054359;28;20055;-67
2023/03/26 10:43:03;;;;;;;6.57;1.63;;;;;;;11.61;63.75;99927.03;5062112;28;20048;-69
2023/03/26 10:45:43;;;;;;;4.85;1.83;;;;;;;12.02;63.42;99924.19;5071116;28;20645;-66
2023/03/26 10:48:40;;;;;;;6.20;1.63;;;;;;;11.80;63.37;99921.84;5066897;28;20514;-67
2023/03/26 10:51:27;;;;;;;7.00;1.77;;;;;;;11.80;63.21;99936.44;5050083;28;20526;-67
2023/03/26 10:53:57;;;;;;;7.95;1.88;;;;;;;12.04;63.14;99930.19;5068604;28;20049;-66
2023/03/26 10:56:32;;;;;;;7.60;2.20;;;;;;;11.83;62.66;99934.97;5058234;28;20072;-66
2023/03/26 10:59:05;;;;;;;7.28;2.15;;;;;;;11.79;63.06;99934.81;5066246;28;20056;-68
2023/03/26 11:02:00;;;;;;;11.20;2.03;;;;;;;11.74;63.37;99937.00;5082645;28;20049;-67
2023/03/26 11:04:35;;;;;;;7.78;2.15;;;;;;;11.61;63.93;99935.31;5070112;28;20048;-68
2023/03/26 11:07:40;;;;;;;10.45;3.17;;;;;;;11.66;64.63;99935.13;5067581;28;20154;-67
2023/03/26 11:10:23;;;;;;;11.02;3.20;;;;;;;11.64;64.46;99929.13;5042352;28;20052;-66
2023/03/26 11:13:09;;;;;;;12.02;3.95;;;;;;;11.93;64.58;99929.00;5066923;28;20056;-66
2023/03/26 11:15:48;;;;;;;12.77;3.70;;;;;;;12.20;63.07;99937.44;5053803;28;20154;-65
2023/03/26 11:18:46;;;;;;;7.32;2.58;;;;;;;12.29;61.88;99931.84;5064371;28;20056;-66
2023/03/26 11:21:16;;;;;;;10.10;3.40;;;;;;;12.40;62.44;99927.47;5067317;28;20045;-67
2023/03/26 11:23:58;;;;;;;14.13;2.80;;;;;;;12.75;61.62;99928.59;5067713;28;20049;-66
2023/03/26 11:26:54;;;;;;;8.60;1.70;;;;;;;12.83;60.42;99915.81;5071497;28;20548;-66
2023/03/26 11:29:28;;;;;;;8.32;1.33;;;;;;;12.63;60.06;99920.34;5063971;28;20064;-67
2023/03/26 11:32:12;;;;;;;5.90;1.20;;;;;;;12.43;57.83;99908.25;5067453;28;20048;-67
2023/03/26 11:35:11;;;;;;;5.78;1.25;;;;;;;12.20;57.18;99915.34;5067748;28;20056;-67
2023/03/26 11:37:46;;;;;;;6.18;1.38;;;;;;;12.01;56.76;99908.78;5014461;28;20056;-65
2023/03/26 11:40:22;;;;;;;6.20;1.52;;;;;;;12.39;57.31;99915.63;5062219;28;20064;-66
2023/03/26 11:42:54;;;;;;;4.45;1.20;;;;;;;12.52;55.86;99912.88;5043688;28;20063;-66
2023/03/26 11:45:25;;;;;;;4.43;1.27;;;;;;;12.45;55.70;99905.94;5065121;28;20079;-65
2023/03/26 11:48:02;;;;;;;7.20;1.27;;;;;;;12.48;54.97;99914.69;5067249;28;20049;-66
2023/03/26 11:50:31;;;;;;;6.68;1.00;;;;;;;12.18;56.45;99912.16;5069014;28;20044;-67
2023/03/26 11:53:09;;;;;;;6.22;1.50;;;;;;;12.27;56.95;99917.56;5064041;28;20629;-67
2023/03/26 11:55:40;;;;;;;7.38;1.20;;;;;;;12.44;57.26;99925.63;5065084;28;20049;-66
2023/03/26 11:58:41;;;;;;;6.18;1.10;;;;;;;12.43;56.69;99926.75;5069661;28;20045;-74
2023/03/26 12:01:16;;;;;;;5.82;1.48;;;;;;;12.29;57.45;99931.84;5059490;28;20099;-67
2023/03/26 12:04:05;;;;;;;4.35;1.20;;;;;;;12.39;57.57;99929.44;5069736;28;20499;-68
2023/03/26 12:06:33;;;;;;;5.43;1.17;;;;;;;12.21;58.01;99947.34;5073454;28;20052;-67
2023/03/26 12:09:01;;;;;;;8.40;1.90;;;;;;;12.22;59.15;99959.22;5071450;28;20055;-67
2023/03/26 12:11:33;;;;;;;7.57;1.98;;;;;;;11.90;59.42;99973.84;5069407;28;20067;-77
2023/03/26 12:14:03;;;;;;;6.85;1.92;;;;;;;12.25;62.26;99945.53;5060966;28;20052;-66
2023/03/26 12:16:31;;;;;;;9.40;2.20;;;;;;;12.26;62.45;99944.38;5067627;28;20048;-67
2023/03/26 12:19:05;;;;;;;10.50;3.10;;;;;;;12.14;62.60;99940.78;5066038;28;20067;-67
2023/03/26 12:21:44;;;;;;;8.23;2.33;;;;;;;11.98;62.29;99937.88;5062935;28;20053;-67
2023/03/26 12:24:36;;;;;;;7.10;1.70;;;;;;;12.01;62.25;99936.41;5074276;28;20055;-66
2023/03/26 12:27:27;;;;;;;5.35;1.48;;;;;;;12.01;63.04;99939.16;5060077;28;20307;-67
2023/03/26 12:29:59;;;;;;;3.75;1.17;;;;;;;12.40;62.36;99935.75;5067826;28;20120;-66